Time;durP1;ratioP1;P1;durP2;ratioP2;P2;SDS_P1;SDS_P2;PMS_P1;PMS_P2;Temp;Humidity;BMP_temperature;BMP_pressure;BME280_temperature;BME280_humidity;BME280_pressure;Samples;Min_cycle;Max_cycle;Signal;HPM_P1;HPM_P2
2022/06/15 00:00:56;;;;;;;;;;;;;;;15.70;67.84;100380.56;6251097;28;19954;-74
2022/06/15 00:04:00;;;;;;;;;;;;;;;15.70;69.87;100383.19;6252284;28;19925;-73
2022/06/15 00:07:01;;;;;;;;;;;;;;;15.63;68.75;100375.94;6252077;28;20522;-72
2022/06/15 00:10:05;;;;;;;;;;;;;;;15.59;68.22;100377.13;6251329;28;19921;-73
2022/06/15 00:13:09;;;;;;;;;;;;;;;15.54;69.14;100377.44;6234048;28;20287;-74
2022/06/15 00:16:10;;;;;;;;;;;;;;;15.57;68.56;100382.50;6251789;28;19928;-74
2022/06/15 00:19:11;;;;;;;;;;;;;;;15.54;70.09;100377.44;6234314;28;19921;-74
2022/06/15 00:22:11;;;;;;;;;;;;;;;15.47;69.09;100377.09;6251857;28;19921;-72
2022/06/15 00:25:13;;;;;;;;;;;;;;;15.40;69.36;100377.66;6250473;28;19928;-74
2022/06/15 00:28:16;;;;;;;;;;;;;;;15.38;70.34;100383.06;6234249;28;19927;-72
2022/06/15 00:31:21;;;;;;;;;;;;;;;15.35;69.45;100379.81;6250439;28;20245;-74
2022/06/15 00:34:22;;;;;;;;;;;;;;;15.35;71.32;100379.81;6266913;28;19921;-73
2022/06/15 00:37:22;;;;;;;;;;;;;;;15.24;72.03;100376.22;6250253;28;20023;-74
2022/06/15 00:40:25;;;;;;;;;;;;;;;15.20;72.73;100371.31;6251685;28;20315;-74
2022/06/15 00:43:29;;;;;;;;;;;;;;;15.17;73.46;100379.41;6251303;28;20015;-74
2022/06/15 00:46:40;;;;;;;;;;;;;;;15.12;74.51;100374.50;6251315;28;19921;-74
2022/06/15 00:49:47;;;;;;;;;;;;;;;15.08;73.23;100380.94;6250783;28;19921;-73
2022/06/15 00:52:48;;;;;;;;;;;;;;;15.06;75.23;100378.41;6251157;28;19944;-72
2022/06/15 00:55:50;;;;;;;;;;;;;;;15.04;75.27;100372.44;6251004;28;20376;-73
2022/06/15 00:58:53;;;;;;;;;;;;;;;15.00;73.68;100371.00;6250944;28;19927;-75
2022/06/15 01:01:53;;;;;;;;;;;;;;;14.97;75.03;100373.00;6250007;28;20394;-73
2022/06/15 01:04:59;;;;;;;;;;;;;;;14.91;74.85;100372.53;6249467;28;19921;-73
2022/06/15 01:08:00;;;;;;;;;;;;;;;14.87;75.71;100371.06;6250823;28;19960;-73
2022/06/15 01:11:08;;;;;;;;;;;;;;;14.89;74.80;100373.59;6250592;28;19929;-73
2022/06/15 01:14:28;;;;;;;;;;;;;;;14.90;76.46;100372.63;6250770;28;19959;-73
2022/06/15 01:17:35;;;;;;;;;;;;;;;14.83;75.24;100377.50;6249313;28;19921;-73
2022/06/15 01:20:36;;;;;;;;;;;;;;;14.84;76.47;100380.97;6250217;28;19928;-73
2022/06/15 01:23:46;;;;;;;;;;;;;;;14.82;75.38;100375.81;6282796;28;19925;-74
2022/06/15 01:26:57;;;;;;;;;;;;;;;14.79;74.40;100378.69;6250454;28;20023;-73
2022/06/15 01:30:17;;;;;;;;;;;;;;;14.78;75.76;100382.25;6249107;28;19928;-73
2022/06/15 01:33:27;;;;;;;;;;;;;;;14.74;75.93;100380.78;6250113;28;19921;-73
2022/06/15 01:36:46;;;;;;;;;;;;;;;14.73;74.14;100371.25;6248229;28;19943;-72
2022/06/15 01:39:47;;;;;;;;;;;;;;;14.67;74.37;100369.91;6248630;28;19947;-73
2022/06/15 01:43:00;;;;;;;;;;;;;;;14.63;74.26;100372.88;6249992;28;19921;-74
2022/06/15 01:46:03;;;;;;;;;;;;;;;14.58;75.23;100372.34;6253506;28;19921;-73
2022/06/15 01:49:05;;;;;;;;;;;;;;;14.57;76.53;100371.53;6247908;28;19924;-73
2022/06/15 01:52:07;;;;;;;;;;;;;;;14.60;74.66;100376.56;6248833;28;19921;-73
2022/06/15 01:55:13;;;;;;;;;;;;;;;14.55;76.52;100365.50;6248446;28;19928;-74
2022/06/15 01:58:16;;;;;;;;;;;;;;;14.49;75.19;100364.16;6267609;28;19928;-72
2022/06/15 02:01:24;;;;;;;;;;;;;;;14.50;75.59;100370.28;6273322;28;19920;-74
2022/06/15 02:04:24;;;;;;;;;;;;;;;14.49;75.49;100365.97;6272053;28;20019;-73
2022/06/15 02:07:25;;;;;;;;;;;;;;;14.50;75.74;100367.66;6271975;28;19921;-74
2022/06/15 02:10:30;;;;;;;;;;;;;;;14.48;76.96;100366.91;6273142;28;19946;-74
2022/06/15 02:13:36;;;;;;;;;;;;;;;14.44;77.75;100370.72;6254568;28;19925;-74
2022/06/15 02:16:40;;;;;;;;;;;;;;;14.39;77.56;100373.69;6247003;28;19920;-73
2022/06/15 02:19:49;;;;;;;;;;;;;;;14.39;76.21;100372.81;6246989;28;19921;-74
2022/06/15 02:22:51;;;;;;;;;;;;;;;14.27;76.85;100380.63;6280033;28;19925;-74
2022/06/15 02:25:53;;;;;;;;;;;;;;;14.24;79.32;100385.25;6248034;28;20280;-74
2022/06/15 02:28:57;;;;;;;;;;;;;;;14.21;76.67;100380.25;6248278;28;19921;-74
2022/06/15 02:31:58;;;;;;;;;;;;;;;14.21;79.44;100381.06;6279898;28;19925;-73
2022/06/15 02:34:59;;;;;;;;;;;;;;;14.18;80.84;100377.81;6247843;28;20257;-73
2022/06/15 02:38:02;;;;;;;;;;;;;;;14.16;81.22;100383.16;6246578;28;20383;-75
2022/06/15 02:41:03;;;;;;;;;;;;;;;14.12;81.19;100379.09;6247555;28;19920;-75
2022/06/15 02:44:06;;;;;;;;;;;;;;;14.10;79.04;100378.34;6230169;28;20020;-73
2022/06/15 02:47:07;;;;;;;;;;;;;;;14.06;79.97;100382.13;6260672;28;20489;-73
2022/06/15 02:50:09;;;;;;;;;;;;;;;14.05;82.33;100385.72;6247081;28;19967;-75
2022/06/15 02:53:14;;;;;;;;;;;;;;;14.05;80.24;100383.94;6248380;28;19925;-73
2022/06/15 02:56:16;;;;;;;;;;;;;;;14.04;80.58;100386.66;6258595;28;20271;-74
2022/06/15 02:59:17;;;;;;;;;;;;;;;14.01;80.28;100389.50;6271673;28;19951;-74
2022/06/15 03:02:19;;;;;;;;;;;;;;;13.99;81.23;100387.00;6271746;28;20299;-73
2022/06/15 03:05:20;;;;;;;;;;;;;;;13.97;81.92;100388.88;6271332;28;19921;-73
2022/06/15 03:08:23;;;;;;;;;;;;;;;13.98;82.86;100393.19;6271540;28;20283;-73
2022/06/15 03:11:24;;;;;;;;;;;;;;;14.03;79.66;100396.31;6255208;28;20379;-73
2022/06/15 03:14:25;;;;;;;;;;;;;;;14.04;78.49;100387.53;6272671;28;20338;-72
2022/06/15 03:17:26;;;;;;;;;;;;;;;14.07;79.23;100394.31;6261905;28;19952;-75
2022/06/15 03:20:26;;;;;;;;;;;;;;;14.06;80.12;100405.75;6230359;28;20024;-75
2022/06/15 03:23:27;;;;;;;;;;;;;;;14.04;83.15;100403.25;6246681;28;19921;-75
2022/06/15 03:26:28;;;;;;;;;;;;;;;14.07;80.09;100402.19;6250989;28;19921;-73
2022/06/15 03:29:30;;;;;;;;;;;;;;;14.08;78.68;100404.72;6251755;28;19928;-73
2022/06/15 03:32:31;;;;;;;;;;;;;;;14.16;78.05;100405.97;6251563;28;20020;-73
2022/06/15 03:35:35;;;;;;;;;;;;;;;14.21;78.37;100416.97;6251589;28;19921;-72
2022/06/15 03:38:39;;;;;;;;;;;;;;;14.26;76.21;100412.22;6251716;28;19921;-74
2022/06/15 03:41:41;;;;;;;;;;;;;;;14.36;75.84;100408.00;6251304;28;19920;-73
2022/06/15 03:44:42;;;;;;;;;;;;;;;14.45;74.57;100406.50;6251472;28;20434;-74
2022/06/15 03:47:43;;;;;;;;;;;;;;;14.53;73.60;100414.66;6252577;28;19956;-74
2022/06/15 03:50:44;;;;;;;;;;;;;;;14.58;77.08;100417.00;6253499;28;19942;-74
2022/06/15 03:53:45;;;;;;;;;;;;;;;14.56;74.78;100406.63;6275759;28;19920;-75
2022/06/15 03:56:48;;;;;;;;;;;;;;;14.64;74.28;100408.66;6275803;28;19920;-74
2022/06/15 03:59:49;;;;;;;;;;;;;;;14.73;72.53;100415.06;6275648;28;19920;-74
2022/06/15 04:02:50;;;;;;;;;;;;;;;14.79;72.26;100415.44;6275702;28;19920;-73
2022/06/15 04:05:54;;;;;;;;;;;;;;;14.86;70.91;100421.09;6276909;28;19925;-74
2022/06/15 04:08:54;;;;;;;;;;;;;;;14.94;71.16;100418.75;6275585;28;19931;-74
2022/06/15 04:11:58;;;;;;;;;;;;;;;15.04;70.01;100421.53;6275447;28;19928;-72
2022/06/15 04:14:59;;;;;;;;;;;;;;;15.18;68.42;100429.25;6276522;28;19955;-74
2022/06/15 04:18:00;;;;;;;;;;;;;;;15.23;69.28;100431.53;6275100;28;19921;-73
2022/06/15 04:21:00;;;;;;;;;;;;;;;15.31;68.63;100434.41;6276530;28;19927;-73
2022/06/15 04:24:01;;;;;;;;;;;;;;;15.42;69.04;100429.19;6275418;28;19925;-73
2022/06/15 04:27:02;;;;;;;;;;;;;;;15.44;70.06;100434.31;6275036;28;19921;-73
2022/06/15 04:30:03;;;;;;;;;;;;;;;15.49;69.96;100440.91;6276402;28;19920;-74
2022/06/15 04:33:04;;;;;;;;;;;;;;;15.61;67.71;100433.06;6276060;28;19921;-74
2022/06/15 04:36:05;;;;;;;;;;;;;;;15.73;67.55;100436.56;6274687;28;19975;-73
2022/06/15 04:39:08;;;;;;;;;;;;;;;15.82;68.19;100439.34;6275288;28;20020;-73
2022/06/15 04:42:09;;;;;;;;;;;;;;;15.81;66.02;100437.66;6276020;28;20062;-72
2022/06/15 04:45:11;;;;;;;;;;;;;;;15.88;65.34;100440.66;6275982;28;19921;-72
2022/06/15 04:48:11;;;;;;;;;;;;;;;15.99;65.62;100437.19;6274614;28;19921;-74
2022/06/15 04:51:23;;;;;;;;;;;;;;;16.07;64.85;100447.97;6274491;28;19935;-73
2022/06/15 04:54:24;;;;;;;;;;;;;;;16.19;64.49;100439.13;6273564;28;19925;-73
2022/06/15 04:57:24;;;;;;;;;;;;;;;16.24;66.50;100439.56;6257264;28;19947;-73
2022/06/15 05:00:27;;;;;;;;;;;;;;;16.29;65.60;100449.78;6274224;28;19925;-73
2022/06/15 05:03:28;;;;;;;;;;;;;;;16.42;62.30;100454.91;6268372;28;19951;-73
2022/06/15 05:06:47;;;;;;;;;;;;;;;16.51;61.72;100451.53;6273472;28;20410;-73
2022/06/15 05:09:49;;;;;;;;;;;;;;;16.69;59.87;100452.69;6273416;28;19920;-74
2022/06/15 05:12:52;;;;;;;;;;;;;;;16.82;60.11;100446.47;6273240;28;19927;-74
2022/06/15 05:15:53;;;;;;;;;;;;;;;16.92;58.81;100447.38;6273235;28;19947;-72
2022/06/15 05:18:57;;;;;;;;;;;;;;;17.08;59.77;100450.44;6252540;28;19925;-73
2022/06/15 05:21:57;;;;;;;;;;;;;;;17.18;54.80;100454.97;6237425;28;20410;-74
2022/06/15 05:24:58;;;;;;;;;;;;;;;17.36;55.64;100463.16;6256403;28;19921;-74
2022/06/15 05:28:02;;;;;;;;;;;;;;;17.42;56.76;100460.00;6267910;28;19921;-74
2022/06/15 05:31:03;;;;;;;;;;;;;;;17.54;56.46;100461.59;6251382;28;19983;-74
2022/06/15 05:34:05;;;;;;;;;;;;;;;17.69;53.70;100459.50;6270821;28;19921;-74
2022/06/15 05:37:05;;;;;;;;;;;;;;;17.95;54.37;100470.50;6273923;28;19920;-74
2022/06/15 05:40:07;;;;;;;;;;;;;;;18.19;54.73;100466.72;6272689;28;19924;-74
2022/06/15 05:43:10;;;;;;;;;;;;;;;18.51;54.40;100466.53;6272963;28;19920;-74
2022/06/15 05:46:15;;;;;;;;;;;;;;;18.75;50.89;100468.84;6272553;28;20371;-73
2022/06/15 05:49:16;;;;;;;;;;;;;;;18.82;54.48;100471.78;6273584;28;19921;-74
2022/06/15 05:52:17;;;;;;;;;;;;;;;18.79;51.71;100475.56;6256226;28;20039;-74
2022/06/15 05:55:25;;;;;;;;;;;;;;;18.77;49.32;100474.81;6271536;28;19920;-73
2022/06/15 05:58:26;;;;;;;;;;;;;;;18.95;48.28;100474.19;6273454;28;19927;-73
2022/06/15 06:01:33;;;;;;;;;;;;;;;19.06;50.57;100484.63;6273359;28;19920;-74
2022/06/15 06:04:34;;;;;;;;;;;;;;;19.24;48.59;100482.97;6272056;28;19928;-74
2022/06/15 06:07:34;;;;;;;;;;;;;;;19.49;50.06;100492.16;6271724;28;19921;-74
2022/06/15 06:10:35;;;;;;;;;;;;;;;19.53;47.06;100490.88;6257169;28;19928;-73
2022/06/15 06:13:36;;;;;;;;;;;;;;;19.42;47.79;100498.16;6214674;28;19944;-73
2022/06/15 06:16:37;;;;;;;;;;;;;;;19.69;49.52;100502.72;6246145;28;20294;-74
2022/06/15 06:19:38;;;;;;;;;;;;;;;19.66;47.74;100490.63;6271890;28;20011;-73
2022/06/15 06:22:38;;;;;;;;;;;;;;;19.54;46.09;100494.41;6230290;28;19921;-73
2022/06/15 06:25:39;;;;;;;;;;;;;;;19.67;44.85;100494.09;6253847;28;20015;-73
2022/06/15 06:28:40;;;;;;;;;;;;;;;19.90;46.35;100503.41;6261904;28;20418;-74
2022/06/15 06:31:41;;;;;;;;;;;;;;;20.12;45.01;100494.28;6266288;28;19959;-74
2022/06/15 06:34:42;;;;;;;;;;;;;;;20.30;42.56;100506.75;6266858;28;19921;-74
2022/06/15 06:37:44;;;;;;;;;;;;;;;20.42;41.71;100502.13;6252122;28;19921;-75
2022/06/15 06:40:44;;;;;;;;;;;;;;;20.38;42.10;100496.25;6263547;28;19924;-74
2022/06/15 06:43:47;;;;;;;;;;;;;;;20.41;41.52;100498.63;6285920;28;19920;-74
2022/06/15 06:46:49;;;;;;;;;;;;;;;20.69;42.62;100498.66;6250354;28;19978;-74
2022/06/15 06:49:49;;;;;;;;;;;;;;;20.89;42.00;100504.69;6304477;28;19921;-74
2022/06/15 06:52:50;;;;;;;;;;;;;;;21.08;41.55;100509.84;6246197;28;20299;-74
2022/06/15 06:55:51;;;;;;;;;;;;;;;21.15;41.60;100502.13;6252574;28;20291;-74
2022/06/15 06:58:52;;;;;;;;;;;;;;;21.53;41.00;100505.47;6270887;28;19921;-74
2022/06/15 07:01:52;;;;;;;;;;;;;;;21.51;38.81;100500.31;6270211;28;20379;-74
2022/06/15 07:04:55;;;;;;;;;;;;;;;21.64;41.01;100505.25;6270806;28;19943;-73
2022/06/15 07:07:56;;;;;;;;;;;;;;;21.79;39.66;100502.84;6271974;28;19920;-73
2022/06/15 07:10:57;;;;;;;;;;;;;;;21.91;42.12;100500.78;6267714;28;19928;-74
2022/06/15 07:14:00;;;;;;;;;;;;;;;21.93;37.77;100506.78;6263461;28;19924;-74
2022/06/15 07:17:02;;;;;;;;;;;;;;;22.28;36.43;100511.16;6267836;28;20023;-74
2022/06/15 07:20:03;;;;;;;;;;;;;;;22.65;38.02;100512.63;6254737;28;19924;-73
2022/06/15 07:23:06;;;;;;;;;;;;;;;22.64;34.80;100507.47;6271359;28;19928;-74
2022/06/15 07:26:10;;;;;;;;;;;;;;;22.52;36.52;100506.91;6272234;28;19921;-74
2022/06/15 07:29:11;;;;;;;;;;;;;;;22.32;37.03;100506.31;6250040;28;20273;-74
2022/06/15 07:32:15;;;;;;;;;;;;;;;22.65;36.85;100512.63;6259937;28;20414;-74
2022/06/15 07:35:22;;;;;;;;;;;;;;;22.55;34.56;100509.28;6269619;28;20008;-74
2022/06/15 07:38:23;;;;;;;;;;;;;;;22.44;35.90;100510.38;6271375;28;19928;-74
2022/06/15 07:41:24;;;;;;;;;;;;;;;22.52;34.98;100502.41;6270110;28;19921;-74
2022/06/15 07:44:26;;;;;;;;;;;;;;;22.53;34.61;100503.28;6271312;28;19927;-74
2022/06/15 07:50:48;;;;;;;;;;;;;;;22.65;33.51;100512.63;6270215;28;19925;-74
2022/06/15 07:53:49;;;;;;;;;;;;;;;22.87;36.49;100497.06;6269675;28;19928;-74
2022/06/15 07:56:51;;;;;;;;;;;;;;;23.16;35.00;100498.47;6271070;28;19920;-74
2022/06/15 07:59:54;;;;;;;;;;;;;;;23.19;35.53;100495.50;6269875;28;19929;-74
2022/06/15 08:02:55;;;;;;;;;;;;;;;23.05;33.11;100497.78;6271105;28;19928;-73
2022/06/15 08:05:56;;;;;;;;;;;;;;;22.60;35.18;100501.63;6270016;28;19924;-74
2022/06/15 08:09:00;;;;;;;;;;;;;;;23.18;36.98;100499.97;6271034;28;19928;-74
2022/06/15 08:12:14;;;;;;;;;;;;;;;23.46;34.14;100508.47;6271802;28;20315;-74
2022/06/15 08:15:15;;;;;;;;;;;;;;;23.71;34.52;100505.78;6274186;28;19928;-74
2022/06/15 08:18:18;;;;;;;;;;;;;;;24.05;34.95;100504.75;6290846;28;19960;-74
2022/06/15 08:21:22;;;;;;;;;;;;;;;24.38;35.38;100504.66;6275383;28;20015;-74
2022/06/15 08:24:25;;;;;;;;;;;;;;;24.58;37.38;100510.44;6275270;28;20283;-74
2022/06/15 08:27:25;;;;;;;;;;;;;;;24.85;33.93;100512.66;6274102;28;20152;-74
2022/06/15 08:30:27;;;;;;;;;;;;;;;25.00;34.47;100510.03;6274021;28;19925;-75
2022/06/15 08:33:27;;;;;;;;;;;;;;;25.44;32.31;100512.09;6273949;28;19966;-75
2022/06/15 08:36:28;;;;;;;;;;;;;;;25.45;33.80;100507.56;6257175;28;20264;-73
2022/06/15 08:39:29;;;;;;;;;;;;;;;25.31;32.61;100507.34;6273868;28;20011;-75
2022/06/15 08:42:42;;;;;;;;;;;;;;;25.17;33.33;100508.09;6274943;28;19920;-75
2022/06/15 08:45:50;;;;;;;;;;;;;;;25.27;33.03;100502.56;6274841;28;19920;-74
2022/06/15 08:48:58;;;;;;;;;;;;;;;24.75;32.86;100506.69;6274916;28;19921;-75
2022/06/15 08:52:01;;;;;;;;;;;;;;;25.22;34.22;100511.06;6289998;28;19927;-74
2022/06/15 08:55:07;;;;;;;;;;;;;;;25.67;32.35;100504.03;6274445;28;20314;-74
2022/06/15 08:58:21;;;;;;;;;;;;;;;25.89;32.60;100506.84;6274641;28;20370;-75
2022/06/15 09:01:30;;;;;;;;;;;;;;;26.29;29.89;100507.41;6273388;28;20385;-74
2022/06/15 09:04:31;;;;;;;;;;;;;;;25.98;30.25;100512.94;6273275;28;19944;-74
2022/06/15 09:07:35;;;;;;;;;;;;;;;26.57;31.54;100507.63;6273401;28;20276;-74
2022/06/15 09:10:45;;;;;;;;;;;;;;;26.65;29.80;100504.00;6273112;28;20363;-74
2022/06/15 09:14:04;;;;;;;;;;;;;;;26.85;32.75;100506.88;6274360;28;19935;-75
2022/06/15 09:17:08;;;;;;;;;;;;;;;26.64;30.70;100503.16;6272901;28;19924;-75
2022/06/15 09:20:13;;;;;;;;;;;;;;;26.72;30.33;100495.00;6273073;28;19959;-75
2022/06/15 09:23:18;;;;;;;;;;;;;;;26.88;32.44;100503.84;6272078;28;20295;-74
2022/06/15 09:26:23;;;;;;;;;;;;;;;27.26;30.62;100504.47;6273967;28;19971;-74
2022/06/15 09:29:31;;;;;;;;;;;;;;;27.69;33.16;100495.53;6273928;28;19921;-75
2022/06/15 09:32:35;;;;;;;;;;;;;;;27.77;29.85;100495.38;6273871;28;19920;-75
2022/06/15 09:35:41;;;;;;;;;;;;;;;26.81;29.07;100502.94;6273584;28;20023;-75
2022/06/15 09:38:45;;;;;;;;;;;;;;;27.03;28.31;100491.22;6273775;28;19920;-74
2022/06/15 09:41:45;;;;;;;;;;;;;;;27.58;32.52;100496.91;6288915;28;20011;-75
2022/06/15 09:44:49;;;;;;;;;;;;;;;27.71;28.52;100496.16;6273616;28;19925;-75
2022/06/15 09:47:52;;;;;;;;;;;;;;;28.38;27.83;100491.22;6273496;28;19927;-74
2022/06/15 09:51:00;;;;;;;;;;;;;;;27.88;28.53;100491.34;6272248;28;19954;-75
2022/06/15 09:54:06;;;;;;;;;;;;;;;28.27;28.65;100498.81;6273054;28;20346;-75
2022/06/15 09:57:07;;;;;;;;;;;;;;;28.63;29.23;100500.44;6272027;28;19921;-75
2022/06/15 10:00:10;;;;;;;;;;;;;;;27.31;28.56;100498.53;6272013;28;19920;-74
2022/06/15 10:03:34;;;;;;;;;;;;;;;26.73;28.25;100498.53;6271719;28;19921;-75
2022/06/15 10:06:38;;;;;;;;;;;;;;;25.96;29.44;100498.94;6266234;28;20358;-75
2022/06/15 10:09:41;;;;;;;;;;;;;;;26.22;29.42;100493.16;6272950;28;20379;-75
2022/06/15 10:12:57;;;;;;;;;;;;;;;26.71;28.57;100487.19;6305025;28;20012;-76
2022/06/15 10:16:16;;;;;;;;;;;;;;;27.62;28.25;100487.44;6271481;28;19920;-74
2022/06/15 10:19:17;;;;;;;;;;;;;;;27.23;27.72;100488.78;6271458;28;19921;-75
2022/06/15 10:22:26;;;;;;;;;;;;;;;26.71;29.65;100493.38;6272575;28;19931;-74
2022/06/15 10:25:29;;;;;;;;;;;;;;;26.52;28.62;100486.75;6271279;28;19932;-74
2022/06/15 10:28:35;;;;;;;;;;;;;;;27.24;31.15;100489.59;6271300;28;19932;-74
2022/06/15 10:31:35;;;;;;;;;;;;;;;28.60;28.23;100484.75;6272306;28;19931;-75
2022/06/15 10:34:46;;;;;;;;;;;;;;;28.64;28.68;100477.09;6272751;28;19927;-75
2022/06/15 10:37:51;;;;;;;;;;;;;;;29.46;28.55;100477.84;6271008;28;19921;-75
2022/06/15 10:40:57;;;;;;;;;;;;;;;29.72;26.77;100471.66;6272208;28;19921;-75
2022/06/15 10:43:59;;;;;;;;;;;;;;;28.99;26.87;100466.22;6270827;28;19921;-75
2022/06/15 10:47:02;;;;;;;;;;;;;;;29.20;25.96;100468.78;6270992;28;19920;-74
2022/06/15 10:50:06;;;;;;;;;;;;;;;27.30;27.84;100465.56;6270899;28;19925;-75
2022/06/15 10:53:23;;;;;;;;;;;;;;;26.37;28.72;100469.06;6270785;28;20038;-75
2022/06/15 11:03:21;;;;;;;;;;;;;;;24.02;31.49;100454.47;6271805;28;19928;-74
2022/06/15 11:06:25;;;;;;;;;;;;;;;24.17;32.20;100457.25;6271797;28;19921;-75
2022/06/15 11:09:34;;;;;;;;;;;;;;;24.11;31.86;100461.41;6270548;28;20015;-74
2022/06/15 11:12:43;;;;;;;;;;;;;;;25.49;31.09;100458.09;6271702;28;19932;-74
2022/06/15 11:19:06;;;;;;;;;;;;;;;27.58;28.38;100445.97;6286990;28;19928;-74
2022/06/15 11:22:14;;;;;;;;;;;;;;;28.11;27.89;100445.50;6270364;28;19925;-74
2022/06/15 11:25:17;;;;;;;;;;;;;;;27.84;25.45;100442.66;6270442;28;20049;-74
2022/06/15 11:28:24;;;;;;;;;;;;;;;28.12;27.12;100437.25;6270426;28;19956;-75
2022/06/15 11:31:27;;;;;;;;;;;;;;;27.95;27.56;100433.25;6271495;28;19921;-74
2022/06/15 11:34:32;;;;;;;;;;;;;;;27.48;27.84;100434.78;6303598;28;19978;-75
2022/06/15 11:37:51;;;;;;;;;;;;;;;28.43;27.09;100441.28;6303601;28;20295;-75
2022/06/15 11:40:54;;;;;;;;;;;;;;;27.85;27.89;100446.16;6271349;28;19920;-75
2022/06/15 11:43:56;;;;;;;;;;;;;;;27.91;26.36;100437.34;6270151;28;20023;-74
2022/06/15 11:47:05;;;;;;;;;;;;;;;28.16;26.62;100439.53;6272164;28;19979;-75
2022/06/15 11:50:14;;;;;;;;;;;;;;;28.82;27.00;100430.88;6308540;28;20387;-74
2022/06/15 11:53:17;;;;;;;;;;;;;;;28.96;26.75;100429.06;6291517;28;19921;-75
2022/06/15 11:56:19;;;;;;;;;;;;;;;29.19;27.53;100421.44;6275804;28;19960;-75
2022/06/15 11:59:22;;;;;;;;;;;;;;;29.21;25.53;100427.44;6274767;28;19921;-75
2022/06/15 12:02:36;;;;;;;;;;;;;;;29.02;27.32;100412.94;6275964;28;19966;-75
2022/06/15 12:05:43;;;;;;;;;;;;;;;29.30;25.99;100417.28;6274610;28;19921;-74
2022/06/15 12:08:47;;;;;;;;;;;;;;;29.26;26.98;100419.59;6274610;28;20070;-74
2022/06/15 12:15:13;;;;;;;;;;;;;;;27.79;26.59;100410.22;6275505;28;19921;-74
2022/06/15 12:18:17;;;;;;;;;;;;;;;26.78;27.58;100410.47;6274161;28;19920;-74
2022/06/15 12:21:18;;;;;;;;;;;;;;;26.45;29.23;100413.59;6275579;28;19928;-75
2022/06/15 12:24:18;;;;;;;;;;;;;;;26.34;30.17;100414.09;6275409;28;19956;-75
2022/06/15 12:27:45;;;;;;;;;;;;;;;26.16;31.75;100411.81;6275332;28;20338;-74
2022/06/15 12:31:09;;;;;;;;;;;;;;;26.01;32.75;100414.50;6271804;28;20024;-75
2022/06/15 12:34:09;;;;;;;;;;;;;;;25.72;30.21;100412.66;6257013;28;19927;-75
2022/06/15 12:37:16;;;;;;;;;;;;;;;25.54;30.24;100415.66;6290477;28;19920;-74
2022/06/15 12:40:35;;;;;;;;;;;;;;;25.38;31.34;100407.81;6307407;28;19956;-74
2022/06/15 12:43:41;;;;;;;;;;;;;;;25.11;30.76;100405.50;6275004;28;19924;-75
2022/06/15 12:46:44;;;;;;;;;;;;;;;25.27;31.71;100404.56;6273732;28;19943;-74
2022/06/15 12:50:07;;;;;;;;;;;;;;;25.48;31.54;100401.19;6274670;28;19921;-74
2022/06/15 12:53:10;;;;;;;;;;;;;;;25.46;33.23;100397.88;6274736;28;20363;-74
2022/06/15 12:56:11;;;;;;;;;;;;;;;24.85;29.79;100397.03;6274448;28;19960;-74
2022/06/15 12:59:27;;;;;;;;;;;;;;;24.92;32.26;100395.34;6272336;28;19977;-75
2022/06/15 13:02:35;;;;;;;;;;;;;;;24.99;30.14;100392.78;6274552;28;20318;-74
2022/06/15 13:05:38;;;;;;;;;;;;;;;25.91;33.72;100393.41;6274422;28;19924;-74
2022/06/15 13:08:44;;;;;;;;;;;;;;;26.42;32.73;100389.06;6273148;28;19921;-74
2022/06/15 13:11:46;;;;;;;;;;;;;;;26.56;27.80;100382.00;6274422;28;19925;-74
2022/06/15 13:14:57;;;;;;;;;;;;;;;26.68;30.56;100378.66;6274173;28;19924;-75
2022/06/15 13:18:08;;;;;;;;;;;;;;;26.94;28.44;100371.91;6274119;28;19920;-74
2022/06/15 13:21:09;;;;;;;;;;;;;;;26.99;28.67;100369.47;6273009;28;20371;-74
2022/06/15 13:24:10;;;;;;;;;;;;;;;26.66;28.10;100369.16;6272925;28;19921;-75
2022/06/15 13:27:18;;;;;;;;;;;;;;;25.70;28.54;100372.75;6272862;28;20326;-74
2022/06/15 13:30:26;;;;;;;;;;;;;;;25.94;29.45;100370.81;6289343;28;19959;-75
2022/06/15 13:33:48;;;;;;;;;;;;;;;26.39;28.56;100368.03;6272606;28;19920;-75
2022/06/15 13:37:08;;;;;;;;;;;;;;;26.33;28.30;100365.09;6272404;28;19928;-74
2022/06/15 13:40:14;;;;;;;;;;;;;;;26.16;29.65;100361.00;6272384;28;19920;-74
2022/06/15 13:43:14;;;;;;;;;;;;;;;26.03;28.75;100366.22;6272398;28;20295;-74
2022/06/15 13:46:27;;;;;;;;;;;;;;;25.73;29.47;100359.00;6272366;28;19963;-74
2022/06/15 13:49:32;;;;;;;;;;;;;;;25.57;29.46;100364.53;6273536;28;19920;-74
2022/06/15 13:52:34;;;;;;;;;;;;;;;25.40;29.14;100360.38;6273373;28;19932;-74
2022/06/15 13:55:38;;;;;;;;;;;;;;;25.55;28.81;100363.88;6273047;28;19921;-74
2022/06/15 13:58:39;;;;;;;;;;;;;;;25.23;29.03;100360.53;6273128;28;19967;-74
2022/06/15 14:01:39;;;;;;;;;;;;;;;25.79;28.86;100361.97;6271977;28;20295;-74
2022/06/15 14:05:06;;;;;;;;;;;;;;;25.81;28.13;100357.25;6272987;28;19966;-74
2022/06/15 14:08:19;;;;;;;;;;;;;;;25.87;27.52;100356.50;6271753;28;19967;-74
2022/06/15 14:11:25;;;;;;;;;;;;;;;26.05;28.25;100356.97;6271484;28;19921;-74
2022/06/15 14:14:38;;;;;;;;;;;;;;;26.31;28.92;100340.38;6304919;28;19920;-74
2022/06/15 14:17:45;;;;;;;;;;;;;;;26.46;29.18;100351.06;6272660;28;20413;-74
2022/06/15 14:20:46;;;;;;;;;;;;;;;26.32;29.58;100350.06;6271436;28;19964;-75
2022/06/15 14:23:48;;;;;;;;;;;;;;;25.88;28.63;100353.66;6304806;28;19973;-74
2022/06/15 14:26:50;;;;;;;;;;;;;;;26.10;29.11;100354.56;6272491;28;19959;-75
2022/06/15 14:29:53;;;;;;;;;;;;;;;26.39;29.21;100352.00;6271175;28;19924;-75
2022/06/15 14:33:14;;;;;;;;;;;;;;;25.78;28.23;100347.78;6271291;28;19928;-75
2022/06/15 14:36:17;;;;;;;;;;;;;;;26.23;29.90;100348.56;6304458;28;20013;-74
2022/06/15 14:39:18;;;;;;;;;;;;;;;25.99;29.53;100355.06;6271033;28;19928;-75
2022/06/15 14:42:18;;;;;;;;;;;;;;;26.23;28.49;100342.34;6271011;28;20330;-74
2022/06/15 14:45:20;;;;;;;;;;;;;;;26.22;28.13;100343.38;6270957;28;19928;-74
2022/06/15 14:48:26;;;;;;;;;;;;;;;26.34;28.46;100341.88;6272144;28;19972;-74
2022/06/15 14:51:28;;;;;;;;;;;;;;;26.42;28.15;100338.22;6270863;28;19924;-74
2022/06/15 14:54:30;;;;;;;;;;;;;;;26.69;28.64;100334.00;6271726;28;20333;-74
2022/06/15 14:57:35;;;;;;;;;;;;;;;26.36;28.41;100330.97;6270701;28;19928;-74
2022/06/15 15:00:36;;;;;;;;;;;;;;;26.48;27.86;100326.75;6271841;28;20299;-74
2022/06/15 15:03:41;;;;;;;;;;;;;;;26.42;28.88;100322.16;6270609;28;19968;-75
2022/06/15 15:06:52;;;;;;;;;;;;;;;26.09;27.74;100320.00;6271702;28;20337;-74
2022/06/15 15:09:54;;;;;;;;;;;;;;;26.01;28.74;100320.13;6287214;28;19920;-74
2022/06/15 15:13:13;;;;;;;;;;;;;;;26.00;28.16;100315.78;6271740;28;19920;-74
2022/06/15 15:16:24;;;;;;;;;;;;;;;26.10;28.51;100313.63;6271971;28;20355;-74
2022/06/15 15:19:30;;;;;;;;;;;;;;;26.15;26.53;100311.22;6270391;28;19924;-74
2022/06/15 15:22:47;;;;;;;;;;;;;;;26.08;26.82;100307.63;6269813;28;19920;-75
2022/06/15 15:25:55;;;;;;;;;;;;;;;25.84;26.73;100314.97;6303725;28;19928;-74
2022/06/15 15:34:08;;;;;;;;;;;;;;;25.90;27.00;100308.03;6271432;28;20425;-74
2022/06/15 15:35:57;;;;;;;;;;;;;;;25.94;27.09;100303.97;6303552;28;19929;-74
2022/06/15 15:39:07;;;;;;;;;;;;;;;26.11;27.10;100299.25;6271294;28;20333;-74
2022/06/15 15:42:09;;;;;;;;;;;;;;;26.11;26.33;100300.06;6286692;28;19921;-75
2022/06/15 15:45:10;;;;;;;;;;;;;;;26.47;27.32;100299.19;6270100;28;19927;-75
2022/06/15 15:48:14;;;;;;;;;;;;;;;25.74;27.27;100288.50;6303646;28;19928;-74
2022/06/15 15:51:14;;;;;;;;;;;;;;;26.02;26.72;100300.38;6271284;28;20379;-74
2022/06/15 15:54:15;;;;;;;;;;;;;;;25.80;26.75;100291.44;6269870;28;19921;-74
2022/06/15 15:57:18;;;;;;;;;;;;;;;25.85;27.00;100289.88;6269867;28;20343;-74
2022/06/15 16:00:22;;;;;;;;;;;;;;;25.87;27.08;100290.50;6269860;28;19921;-74
2022/06/15 16:03:23;;;;;;;;;;;;;;;25.69;27.45;100298.91;6270977;28;19921;-74
2022/06/15 16:06:24;;;;;;;;;;;;;;;25.83;28.29;100293.75;6269830;28;19921;-74